sensor_id;sensor_type;location;lat;lon;timestamp;temperature;humidity
43607;DHT22;29197;44.788;10.366;2024-03-23T10:38:44;20.60;99.90
43607;DHT22;29197;44.788;10.366;2024-03-23T10:41:32;20.60;99.90
43607;DHT22;29197;44.788;10.366;2024-03-23T10:44:19;20.70;99.90
43607;DHT22;29197;44.788;10.366;2024-03-23T10:47:08;20.80;99.90
43607;DHT22;29197;44.788;10.366;2024-03-23T10:49:56;20.90;99.90
43607;DHT22;29197;44.788;10.366;2024-03-23T10:52:46;20.90;99.90
43607;DHT22;29197;44.788;10.366;2024-03-23T11:01:11;21.40;99.90
43607;DHT22;29197;44.788;10.366;2024-03-23T11:04:00;21.60;99.90
43607;DHT22;29197;44.788;10.366;2024-03-23T11:06:46;21.80;99.90
43607;DHT22;29197;44.788;10.366;2024-03-23T11:09:41;21.80;99.90
43607;DHT22;29197;44.788;10.366;2024-03-23T11:12:31;21.90;99.90
43607;DHT22;29197;44.788;10.366;2024-03-23T11:15:19;22.10;99.90
43607;DHT22;29197;44.788;10.366;2024-03-23T11:18:07;22.20;99.90
43607;DHT22;29197;44.788;10.366;2024-03-23T11:20:56;22.20;99.90
43607;DHT22;29197;44.788;10.366;2024-03-23T11:23:42;22.10;99.90
43607;DHT22;29197;44.788;10.366;2024-03-23T11:26:30;21.90;99.90
43607;DHT22;29197;44.788;10.366;2024-03-23T11:29:17;21.90;99.90
43607;DHT22;29197;44.788;10.366;2024-03-23T11:32:10;21.90;99.90
43607;DHT22;29197;44.788;10.366;2024-03-23T11:34:59;21.70;99.90
43607;DHT22;29197;44.788;10.366;2024-03-23T11:38:04;21.60;99.90
43607;DHT22;29197;44.788;10.366;2024-03-23T11:40:51;21.40;99.90
43607;DHT22;29197;44.788;10.366;2024-03-23T11:43:38;21.30;99.90
43607;DHT22;29197;44.788;10.366;2024-03-23T11:46:24;21.50;99.90
43607;DHT22;29197;44.788;10.366;2024-03-23T11:49:23;21.70;99.90
43607;DHT22;29197;44.788;10.366;2024-03-23T11:52:11;21.80;99.90
43607;DHT22;29197;44.788;10.366;2024-03-23T11:55:05;21.90;99.90
43607;DHT22;29197;44.788;10.366;2024-03-23T11:57:54;22.10;99.90
43607;DHT22;29197;44.788;10.366;2024-03-23T12:00:41;22.30;99.90
43607;DHT22;29197;44.788;10.366;2024-03-23T12:03:29;22.50;99.90
43607;DHT22;29197;44.788;10.366;2024-03-23T12:06:20;22.70;99.90
43607;DHT22;29197;44.788;10.366;2024-03-23T12:09:07;22.80;99.90
43607;DHT22;29197;44.788;10.366;2024-03-23T12:11:56;22.80;99.90
43607;DHT22;29197;44.788;10.366;2024-03-23T12:14:43;23.00;99.90
43607;DHT22;29197;44.788;10.366;2024-03-23T12:17:30;23.00;99.90
43607;DHT22;29197;44.788;10.366;2024-03-23T12:20:17;23.10;99.90
43607;DHT22;29197;44.788;10.366;2024-03-23T12:23:05;23.30;99.90
43607;DHT22;29197;44.788;10.366;2024-03-23T12:25:52;23.30;99.90
43607;DHT22;29197;44.788;10.366;2024-03-23T12:28:41;23.40;99.90
43607;DHT22;29197;44.788;10.366;2024-03-23T12:31:27;23.10;99.90
43607;DHT22;29197;44.788;10.366;2024-03-23T12:34:15;22.80;99.90
43607;DHT22;29197;44.788;10.366;2024-03-23T12:37:01;23.00;99.90
43607;DHT22;29197;44.788;10.366;2024-03-23T12:39:49;23.10;99.90
43607;DHT22;29197;44.788;10.366;2024-03-23T12:42:35;23.40;99.90
43607;DHT22;29197;44.788;10.366;2024-03-23T12:45:24;23.60;99.90
43607;DHT22;29197;44.788;10.366;2024-03-23T12:48:10;23.60;99.90
43607;DHT22;29197;44.788;10.366;2024-03-23T12:50:58;23.70;99.90
43607;DHT22;29197;44.788;10.366;2024-03-23T12:53:45;23.40;99.90
43607;DHT22;29197;44.788;10.366;2024-03-23T12:56:32;23.20;99.90
43607;DHT22;29197;44.788;10.366;2024-03-23T12:59:18;23.20;99.90
43607;DHT22;29197;44.788;10.366;2024-03-23T13:02:07;23.00;99.90
43607;DHT22;29197;44.788;10.366;2024-03-23T13:04:54;22.90;99.90
43607;DHT22;29197;44.788;10.366;2024-03-23T13:07:41;23.00;99.90
43607;DHT22;29197;44.788;10.366;2024-03-23T13:10:28;23.30;99.90
43607;DHT22;29197;44.788;10.366;2024-03-23T13:13:16;23.40;99.90
43607;DHT22;29197;44.788;10.366;2024-03-23T13:16:03;23.50;99.90
43607;DHT22;29197;44.788;10.366;2024-03-23T13:18:52;23.50;99.90
43607;DHT22;29197;44.788;10.366;2024-03-23T13:21:39;23.70;99.90
43607;DHT22;29197;44.788;10.366;2024-03-23T13:24:27;23.50;99.90
43607;DHT22;29197;44.788;10.366;2024-03-23T13:27:15;23.70;99.90
43607;DHT22;29197;44.788;10.366;2024-03-23T13:30:03;23.90;99.90
43607;DHT22;29197;44.788;10.366;2024-03-23T13:32:50;23.90;99.90
43607;DHT22;29197;44.788;10.366;2024-03-23T13:35:39;23.80;99.90
43607;DHT22;29197;44.788;10.366;2024-03-23T13:38:25;23.90;99.90
43607;DHT22;29197;44.788;10.366;2024-03-23T13:41:15;23.70;99.90
43607;DHT22;29197;44.788;10.366;2024-03-23T13:44:01;23.90;99.90
43607;DHT22;29197;44.788;10.366;2024-03-23T13:46:49;23.90;99.90
43607;DHT22;29197;44.788;10.366;2024-03-23T13:49:37;23.80;99.90
43607;DHT22;29197;44.788;10.366;2024-03-23T13:52:25;24.20;99.90
43607;DHT22;29197;44.788;10.366;2024-03-23T13:55:12;23.70;99.90
43607;DHT22;29197;44.788;10.366;2024-03-23T13:58:01;23.70;99.90
43607;DHT22;29197;44.788;10.366;2024-03-23T14:00:50;23.50;99.90
43607;DHT22;29197;44.788;10.366;2024-03-23T14:03:36;23.30;99.90
43607;DHT22;29197;44.788;10.366;2024-03-23T14:06:24;23.30;99.90
43607;DHT22;29197;44.788;10.366;2024-03-23T14:09:13;23.30;99.90
43607;DHT22;29197;44.788;10.366;2024-03-23T14:12:00;23.30;99.90
43607;DHT22;29197;44.788;10.366;2024-03-23T14:14:48;22.90;99.90
43607;DHT22;29197;44.788;10.366;2024-03-23T14:17:34;22.70;99.90
43607;DHT22;29197;44.788;10.366;2024-03-23T14:20:22;22.70;99.90
43607;DHT22;29197;44.788;10.366;2024-03-23T14:23:09;22.30;99.90
43607;DHT22;29197;44.788;10.366;2024-03-23T14:25:58;22.00;99.90
43607;DHT22;29197;44.788;10.366;2024-03-23T14:28:45;21.70;99.90
43607;DHT22;29197;44.788;10.366;2024-03-23T14:31:32;21.60;99.90
43607;DHT22;29197;44.788;10.366;2024-03-23T14:34:18;21.50;99.90
43607;DHT22;29197;44.788;10.366;2024-03-23T14:37:06;21.50;99.90
43607;DHT22;29197;44.788;10.366;2024-03-23T14:39:52;21.50;99.90
43607;DHT22;29197;44.788;10.366;2024-03-23T14:42:41;21.30;99.90
43607;DHT22;29197;44.788;10.366;2024-03-23T14:45:28;21.30;99.90
43607;DHT22;29197;44.788;10.366;2024-03-23T14:48:15;21.40;99.90
43607;DHT22;29197;44.788;10.366;2024-03-23T14:51:03;21.60;99.90
43607;DHT22;29197;44.788;10.366;2024-03-23T14:53:50;21.50;99.90
43607;DHT22;29197;44.788;10.366;2024-03-23T14:56:38;21.40;99.90
43607;DHT22;29197;44.788;10.366;2024-03-23T14:59:26;21.40;99.90
43607;DHT22;29197;44.788;10.366;2024-03-23T15:02:13;21.40;99.90
43607;DHT22;29197;44.788;10.366;2024-03-23T15:05:01;21.40;99.90
43607;DHT22;29197;44.788;10.366;2024-03-23T15:07:49;21.30;99.90
43607;DHT22;29197;44.788;10.366;2024-03-23T15:10:36;21.30;99.90
43607;DHT22;29197;44.788;10.366;2024-03-23T15:13:23;21.30;99.90
43607;DHT22;29197;44.788;10.366;2024-03-23T15:16:16;21.10;99.90
43607;DHT22;29197;44.788;10.366;2024-03-23T15:19:03;21.00;99.90
43607;DHT22;29197;44.788;10.366;2024-03-23T15:21:52;20.90;99.90
43607;DHT22;29197;44.788;10.366;2024-03-23T15:24:38;20.70;99.90
43607;DHT22;29197;44.788;10.366;2024-03-23T15:27:26;20.70;99.90
43607;DHT22;29197;44.788;10.366;2024-03-23T15:30:13;20.70;99.90
43607;DHT22;29197;44.788;10.366;2024-03-23T15:33:02;20.70;99.90
43607;DHT22;29197;44.788;10.366;2024-03-23T15:35:48;20.60;99.90
43607;DHT22;29197;44.788;10.366;2024-03-23T15:38:36;20.50;99.90
43607;DHT22;29197;44.788;10.366;2024-03-23T15:41:24;20.50;99.90
43607;DHT22;29197;44.788;10.366;2024-03-23T15:44:12;20.40;99.90
43607;DHT22;29197;44.788;10.366;2024-03-23T15:46:59;20.30;99.90
43607;DHT22;29197;44.788;10.366;2024-03-23T15:49:47;20.30;99.90
43607;DHT22;29197;44.788;10.366;2024-03-23T15:52:34;20.30;99.90
43607;DHT22;29197;44.788;10.366;2024-03-23T15:55:22;20.40;99.90
43607;DHT22;29197;44.788;10.366;2024-03-23T15:58:09;20.40;99.90
43607;DHT22;29197;44.788;10.366;2024-03-23T16:03:43;20.10;99.90
43607;DHT22;29197;44.788;10.366;2024-03-23T16:06:32;20.00;99.90
43607;DHT22;29197;44.788;10.366;2024-03-23T16:09:19;20.00;99.90
43607;DHT22;29197;44.788;10.366;2024-03-23T16:14:53;19.90;99.90
43607;DHT22;29197;44.788;10.366;2024-03-23T16:17:40;19.80;99.90
43607;DHT22;29197;44.788;10.366;2024-03-23T16:20:27;19.70;99.90
43607;DHT22;29197;44.788;10.366;2024-03-23T16:23:15;19.60;99.90
43607;DHT22;29197;44.788;10.366;2024-03-23T16:26:03;19.60;99.90
43607;DHT22;29197;44.788;10.366;2024-03-23T16:28:50;19.60;99.90
43607;DHT22;29197;44.788;10.366;2024-03-23T16:31:37;19.60;99.90
43607;DHT22;29197;44.788;10.366;2024-03-23T16:34:23;19.50;99.90
43607;DHT22;29197;44.788;10.366;2024-03-23T16:37:11;19.60;99.90
43607;DHT22;29197;44.788;10.366;2024-03-23T16:39:59;19.50;99.90
43607;DHT22;29197;44.788;10.366;2024-03-23T16:42:47;19.40;99.90
43607;DHT22;29197;44.788;10.366;2024-03-23T16:45:33;19.40;99.90
43607;DHT22;29197;44.788;10.366;2024-03-23T16:48:21;19.20;99.90
43607;DHT22;29197;44.788;10.366;2024-03-23T16:51:09;19.20;99.90
43607;DHT22;29197;44.788;10.366;2024-03-23T16:53:56;19.10;99.90
43607;DHT22;29197;44.788;10.366;2024-03-23T16:56:46;18.90;99.90
43607;DHT22;29197;44.788;10.366;2024-03-23T16:59:33;18.90;99.90
43607;DHT22;29197;44.788;10.366;2024-03-23T17:02:20;18.90;99.90
43607;DHT22;29197;44.788;10.366;2024-03-23T17:05:07;18.90;99.90
43607;DHT22;29197;44.788;10.366;2024-03-23T17:07:54;18.70;99.90
43607;DHT22;29197;44.788;10.366;2024-03-23T17:10:42;18.70;99.90
43607;DHT22;29197;44.788;10.366;2024-03-23T17:13:31;18.50;99.90
43607;DHT22;29197;44.788;10.366;2024-03-23T17:16:18;18.50;99.90
43607;DHT22;29197;44.788;10.366;2024-03-23T17:19:05;18.40;99.90
43607;DHT22;29197;44.788;10.366;2024-03-23T17:21:52;18.40;99.90
43607;DHT22;29197;44.788;10.366;2024-03-23T17:24:39;18.50;99.90
43607;DHT22;29197;44.788;10.366;2024-03-23T17:27:26;18.40;99.90
43607;DHT22;29197;44.788;10.366;2024-03-23T17:30:15;18.40;99.90
43607;DHT22;29197;44.788;10.366;2024-03-23T17:33:02;18.30;99.90
43607;DHT22;29197;44.788;10.366;2024-03-23T17:35:49;18.30;99.90
43607;DHT22;29197;44.788;10.366;2024-03-23T17:38:36;18.20;99.90
43607;DHT22;29197;44.788;10.366;2024-03-23T17:41:23;18.10;99.90
43607;DHT22;29197;44.788;10.366;2024-03-23T17:44:13;18.10;99.90
43607;DHT22;29197;44.788;10.366;2024-03-23T17:47:01;18.00;99.90
43607;DHT22;29197;44.788;10.366;2024-03-23T17:49:49;18.10;99.90
43607;DHT22;29197;44.788;10.366;2024-03-23T17:52:36;18.00;99.90
43607;DHT22;29197;44.788;10.366;2024-03-23T17:55:23;18.10;99.90
43607;DHT22;29197;44.788;10.366;2024-03-23T17:58:09;18.10;99.90
43607;DHT22;29197;44.788;10.366;2024-03-23T18:00:57;18.10;99.90
43607;DHT22;29197;44.788;10.366;2024-03-23T18:03:45;18.00;99.90
43607;DHT22;29197;44.788;10.366;2024-03-23T18:06:32;18.10;99.90
43607;DHT22;29197;44.788;10.366;2024-03-23T18:09:18;18.00;99.90
43607;DHT22;29197;44.788;10.366;2024-03-23T18:12:06;18.00;99.90
43607;DHT22;29197;44.788;10.366;2024-03-23T18:14:53;18.00;99.90
43607;DHT22;29197;44.788;10.366;2024-03-23T18:17:43;17.90;99.90
43607;DHT22;29197;44.788;10.366;2024-03-23T18:20:31;18.00;99.90
43607;DHT22;29197;44.788;10.366;2024-03-23T18:23:18;17.90;99.90
43607;DHT22;29197;44.788;10.366;2024-03-23T18:26:05;18.00;99.90
43607;DHT22;29197;44.788;10.366;2024-03-23T18:28:52;17.90;99.90
43607;DHT22;29197;44.788;10.366;2024-03-23T18:31:39;17.90;99.90
43607;DHT22;29197;44.788;10.366;2024-03-23T18:34:27;17.90;99.90
43607;DHT22;29197;44.788;10.366;2024-03-23T18:37:15;18.00;99.90
43607;DHT22;29197;44.788;10.366;2024-03-23T18:40:05;17.90;99.90
43607;DHT22;29197;44.788;10.366;2024-03-23T18:42:52;18.00;99.90
43607;DHT22;29197;44.788;10.366;2024-03-23T18:45:45;17.90;99.90
43607;DHT22;29197;44.788;10.366;2024-03-23T18:48:32;17.80;99.90
43607;DHT22;29197;44.788;10.366;2024-03-23T18:51:19;17.80;99.90
43607;DHT22;29197;44.788;10.366;2024-03-23T18:54:08;17.70;99.90
43607;DHT22;29197;44.788;10.366;2024-03-23T18:56:55;17.70;99.90
43607;DHT22;29197;44.788;10.366;2024-03-23T18:59:41;17.70;99.90
43607;DHT22;29197;44.788;10.366;2024-03-23T19:02:29;17.70;99.90
43607;DHT22;29197;44.788;10.366;2024-03-23T19:05:15;17.70;99.90
43607;DHT22;29197;44.788;10.366;2024-03-23T19:08:03;17.70;99.90
43607;DHT22;29197;44.788;10.366;2024-03-23T19:10:55;17.60;99.90
43607;DHT22;29197;44.788;10.366;2024-03-23T19:13:43;17.60;99.90
43607;DHT22;29197;44.788;10.366;2024-03-23T19:16:29;17.50;99.90
43607;DHT22;29197;44.788;10.366;2024-03-23T19:19:17;17.40;99.90
43607;DHT22;29197;44.788;10.366;2024-03-23T19:22:03;17.30;99.90
43607;DHT22;29197;44.788;10.366;2024-03-23T19:24:51;17.20;99.90
43607;DHT22;29197;44.788;10.366;2024-03-23T19:27:39;17.10;99.90
43607;DHT22;29197;44.788;10.366;2024-03-23T19:30:27;17.00;99.90
43607;DHT22;29197;44.788;10.366;2024-03-23T19:33:16;17.10;99.90
43607;DHT22;29197;44.788;10.366;2024-03-23T19:36:04;17.00;99.90
43607;DHT22;29197;44.788;10.366;2024-03-23T19:38:50;16.90;99.90
43607;DHT22;29197;44.788;10.366;2024-03-23T19:41:37;16.90;99.90
43607;DHT22;29197;44.788;10.366;2024-03-23T19:44:25;17.00;99.90
43607;DHT22;29197;44.788;10.366;2024-03-23T19:47:13;17.00;99.90
43607;DHT22;29197;44.788;10.366;2024-03-23T19:50:00;17.00;99.90
43607;DHT22;29197;44.788;10.366;2024-03-23T19:52:48;17.00;99.90
43607;DHT22;29197;44.788;10.366;2024-03-23T19:55:36;16.90;99.90
43607;DHT22;29197;44.788;10.366;2024-03-23T19:58:24;16.90;99.90
43607;DHT22;29197;44.788;10.366;2024-03-23T20:01:15;16.80;99.90
43607;DHT22;29197;44.788;10.366;2024-03-23T20:04:03;16.90;99.90
43607;DHT22;29197;44.788;10.366;2024-03-23T20:06:50;16.90;99.90
43607;DHT22;29197;44.788;10.366;2024-03-23T20:09:37;17.00;99.90
43607;DHT22;29197;44.788;10.366;2024-03-23T20:12:24;16.90;99.90
43607;DHT22;29197;44.788;10.366;2024-03-23T20:15:11;16.80;99.90
43607;DHT22;29197;44.788;10.366;2024-03-23T20:18:00;16.90;99.90
43607;DHT22;29197;44.788;10.366;2024-03-23T20:20:46;16.90;99.90
43607;DHT22;29197;44.788;10.366;2024-03-23T20:23:35;16.90;99.90
43607;DHT22;29197;44.788;10.366;2024-03-23T20:26:22;16.80;99.90
43607;DHT22;29197;44.788;10.366;2024-03-23T20:29:09;16.80;99.90
43607;DHT22;29197;44.788;10.366;2024-03-23T20:31:56;16.90;99.90
43607;DHT22;29197;44.788;10.366;2024-03-23T20:34:45;16.90;99.90
43607;DHT22;29197;44.788;10.366;2024-03-23T20:37:31;16.90;99.90
43607;DHT22;29197;44.788;10.366;2024-03-23T20:40:19;16.80;99.90
43607;DHT22;29197;44.788;10.366;2024-03-23T20:43:07;16.80;99.90
43607;DHT22;29197;44.788;10.366;2024-03-23T20:45:56;16.80;99.90
43607;DHT22;29197;44.788;10.366;2024-03-23T20:48:44;16.70;99.90
43607;DHT22;29197;44.788;10.366;2024-03-23T20:51:36;16.70;99.90
43607;DHT22;29197;44.788;10.366;2024-03-23T20:54:23;16.70;99.90
43607;DHT22;29197;44.788;10.366;2024-03-23T20:57:10;16.60;99.90
43607;DHT22;29197;44.788;10.366;2024-03-23T20:59:57;16.60;99.90
43607;DHT22;29197;44.788;10.366;2024-03-23T21:02:45;16.60;99.90
43607;DHT22;29197;44.788;10.366;2024-03-23T21:05:31;16.60;99.90
43607;DHT22;29197;44.788;10.366;2024-03-23T21:08:20;16.60;99.90
43607;DHT22;29197;44.788;10.366;2024-03-23T21:11:06;16.50;99.90
43607;DHT22;29197;44.788;10.366;2024-03-23T21:13:54;16.50;99.90
43607;DHT22;29197;44.788;10.366;2024-03-23T21:16:40;16.50;99.90
43607;DHT22;29197;44.788;10.366;2024-03-23T21:19:28;16.50;99.90
43607;DHT22;29197;44.788;10.366;2024-03-23T21:22:15;16.50;99.90
43607;DHT22;29197;44.788;10.366;2024-03-23T21:25:04;16.40;99.90
43607;DHT22;29197;44.788;10.366;2024-03-23T21:27:51;16.40;99.90
43607;DHT22;29197;44.788;10.366;2024-03-23T21:30:38;16.40;99.90
43607;DHT22;29197;44.788;10.366;2024-03-23T21:33:25;16.40;99.90
43607;DHT22;29197;44.788;10.366;2024-03-23T21:36:12;16.30;99.90
43607;DHT22;29197;44.788;10.366;2024-03-23T21:38:59;16.30;99.90
43607;DHT22;29197;44.788;10.366;2024-03-23T21:41:48;16.30;99.90
43607;DHT22;29197;44.788;10.366;2024-03-23T21:44:35;16.20;99.90
43607;DHT22;29197;44.788;10.366;2024-03-23T21:47:22;16.30;99.90
43607;DHT22;29197;44.788;10.366;2024-03-23T21:50:11;16.40;99.90
43607;DHT22;29197;44.788;10.366;2024-03-23T21:52:59;16.40;99.90
43607;DHT22;29197;44.788;10.366;2024-03-23T21:55:49;16.40;99.90
43607;DHT22;29197;44.788;10.366;2024-03-23T21:58:38;16.30;99.90
43607;DHT22;29197;44.788;10.366;2024-03-23T22:01:24;16.30;99.90
43607;DHT22;29197;44.788;10.366;2024-03-23T22:04:12;16.20;99.90
43607;DHT22;29197;44.788;10.366;2024-03-23T22:06:58;16.10;99.90
43607;DHT22;29197;44.788;10.366;2024-03-23T22:09:46;16.20;99.90
43607;DHT22;29197;44.788;10.366;2024-03-23T22:12:33;16.30;99.90
43607;DHT22;29197;44.788;10.366;2024-03-23T22:15:21;16.30;99.90
43607;DHT22;29197;44.788;10.366;2024-03-23T22:18:09;16.10;99.90
43607;DHT22;29197;44.788;10.366;2024-03-23T22:20:56;16.10;99.90
43607;DHT22;29197;44.788;10.366;2024-03-23T22:23:43;16.20;99.90
43607;DHT22;29197;44.788;10.366;2024-03-23T22:26:30;16.10;99.90
43607;DHT22;29197;44.788;10.366;2024-03-23T22:29:17;16.10;99.90
43607;DHT22;29197;44.788;10.366;2024-03-23T22:32:05;16.00;99.90
43607;DHT22;29197;44.788;10.366;2024-03-23T22:37:40;15.80;99.90
